createdAt,value
2022-12-24T00:02:55.370Z,99.90
2022-12-24T00:06:00.098Z,99.90
2022-12-24T00:09:03.395Z,99.90
2022-12-24T00:12:07.488Z,99.90
2022-12-24T00:15:11.751Z,99.90
2022-12-24T00:18:14.925Z,99.90
2022-12-24T00:21:19.431Z,99.90
2022-12-24T00:24:22.586Z,99.90
2022-12-24T00:27:25.747Z,99.90
2022-12-24T00:30:28.960Z,99.90
2022-12-24T00:33:32.092Z,99.90
2022-12-24T00:36:36.580Z,99.90
2022-12-24T00:39:39.719Z,99.90
2022-12-24T00:42:42.881Z,99.90
2022-12-24T00:45:46.083Z,99.90
2022-12-24T00:48:49.925Z,99.90
2022-12-24T00:51:54.413Z,99.90
2022-12-24T00:54:57.589Z,99.90
2022-12-24T00:58:00.689Z,99.90
2022-12-24T01:01:04.210Z,99.90
2022-12-24T01:04:25.035Z,99.90
2022-12-24T01:07:29.575Z,99.90
2022-12-24T01:10:32.705Z,99.90
2022-12-24T01:13:36.080Z,99.90
2022-12-24T01:16:39.238Z,99.90
2022-12-24T01:19:42.377Z,99.90
2022-12-24T01:22:47.236Z,99.90
2022-12-24T01:25:50.408Z,99.90
2022-12-24T01:28:53.585Z,99.90
2022-12-24T01:31:56.781Z,99.90
2022-12-24T01:35:00.246Z,99.90
2022-12-24T01:38:04.776Z,99.90
2022-12-24T01:41:25.511Z,99.90
2022-12-24T01:44:36.112Z,99.90
2022-12-24T01:47:40.000Z,99.90
2022-12-24T01:50:43.475Z,99.90
2022-12-24T01:53:53.751Z,99.90
2022-12-24T01:57:00.652Z,99.90
2022-12-24T02:00:08.230Z,99.90
2022-12-24T02:03:11.574Z,99.90
2022-12-24T02:06:16.630Z,99.90
2022-12-24T02:09:21.185Z,99.90
2022-12-24T02:12:24.720Z,99.90
2022-12-24T02:15:30.113Z,99.90
2022-12-24T02:18:39.918Z,99.90
2022-12-24T02:21:53.081Z,99.90
2022-12-24T02:25:17.447Z,99.90
2022-12-24T02:28:37.701Z,99.90
2022-12-24T02:31:46.312Z,99.90
2022-12-24T02:34:53.506Z,99.90
2022-12-24T02:38:00.722Z,99.90
2022-12-24T02:41:08.481Z,99.90
2022-12-24T02:44:11.662Z,99.90
2022-12-24T02:47:18.078Z,99.90
2022-12-24T02:50:21.250Z,99.90
2022-12-24T02:53:24.603Z,99.90
2022-12-24T02:56:46.849Z,99.90
2022-12-24T03:00:03.983Z,99.90
2022-12-24T03:03:21.377Z,99.90
2022-12-24T03:06:33.838Z,99.90
2022-12-24T03:09:45.047Z,99.90
2022-12-24T03:12:51.605Z,99.90
2022-12-24T03:15:54.825Z,99.90
2022-12-24T03:19:01.182Z,99.90
2022-12-24T03:22:06.890Z,99.90
2022-12-24T03:25:10.307Z,99.90
2022-12-24T03:28:15.791Z,99.90
2022-12-24T03:31:19.753Z,99.90
2022-12-24T03:34:24.320Z,99.90
2022-12-24T03:37:27.876Z,99.90
2022-12-24T03:40:31.033Z,99.90
2022-12-24T03:43:34.712Z,99.90
2022-12-24T03:46:37.910Z,99.90
2022-12-24T03:49:42.520Z,99.90
2022-12-24T03:52:45.769Z,99.90
2022-12-24T03:55:48.952Z,99.90
2022-12-24T03:58:52.255Z,99.90
2022-12-24T04:01:55.683Z,99.90
2022-12-24T04:05:00.364Z,99.90
2022-12-24T04:08:03.494Z,99.90
2022-12-24T04:11:10.152Z,99.90
2022-12-24T04:14:13.402Z,99.90
2022-12-24T04:17:16.585Z,99.90
2022-12-24T04:20:21.127Z,99.90
2022-12-24T04:23:25.066Z,99.90
2022-12-24T04:26:28.231Z,99.90
2022-12-24T04:29:31.426Z,99.90
2022-12-24T04:32:34.601Z,99.90
2022-12-24T04:35:42.390Z,99.90
2022-12-24T04:38:45.894Z,99.90
2022-12-24T04:41:49.020Z,99.90
2022-12-24T04:44:52.193Z,99.90
2022-12-24T04:47:55.423Z,99.90
2022-12-24T04:51:02.732Z,99.90
2022-12-24T04:54:06.009Z,99.90
2022-12-24T04:57:09.151Z,99.90
2022-12-24T05:00:13.559Z,99.90
2022-12-24T05:03:16.892Z,99.90
2022-12-24T05:06:23.974Z,99.90
2022-12-24T05:09:27.168Z,99.90
2022-12-24T05:12:30.303Z,99.90
2022-12-24T05:15:33.460Z,99.90
2022-12-24T05:18:36.673Z,99.90
2022-12-24T05:21:41.210Z,99.90
2022-12-24T05:25:01.840Z,99.90
2022-12-24T05:28:04.987Z,99.90
2022-12-24T05:31:08.137Z,99.90
2022-12-24T05:34:12.450Z,99.90
2022-12-24T05:37:16.972Z,99.90
2022-12-24T05:40:20.106Z,99.90
2022-12-24T05:43:23.223Z,99.90
2022-12-24T05:46:26.923Z,99.90
2022-12-24T05:49:30.917Z,99.90
2022-12-24T05:52:35.391Z,99.90
2022-12-24T05:55:38.521Z,99.90
2022-12-24T05:58:42.935Z,99.90
2022-12-24T06:01:48.081Z,99.90
2022-12-24T06:04:51.432Z,99.90
2022-12-24T06:07:55.905Z,99.90
2022-12-24T06:10:59.966Z,99.90
2022-12-24T06:14:03.141Z,99.90
2022-12-24T06:17:06.329Z,99.90
2022-12-24T06:20:10.298Z,99.90
2022-12-24T06:23:14.861Z,99.90
2022-12-24T06:26:20.016Z,99.90
2022-12-24T06:29:23.273Z,99.90
2022-12-24T06:32:26.442Z,99.90
2022-12-24T06:35:29.602Z,99.90
2022-12-24T06:38:34.266Z,99.90
2022-12-24T06:41:37.463Z,99.90
2022-12-24T06:44:40.691Z,99.90
2022-12-24T06:47:43.823Z,99.90
2022-12-24T06:50:47.055Z,99.90
2022-12-24T06:53:51.706Z,99.90
2022-12-24T06:56:57.681Z,99.90
2022-12-24T07:00:01.397Z,99.90
2022-12-24T07:03:04.863Z,99.90
2022-12-24T07:06:08.783Z,99.90
2022-12-24T07:09:14.872Z,99.90
2022-12-24T07:12:18.105Z,99.90
2022-12-24T07:15:21.415Z,99.90
2022-12-24T07:18:24.576Z,99.90
2022-12-24T07:21:27.717Z,99.90
2022-12-24T07:24:32.273Z,99.90
2022-12-24T07:27:35.370Z,99.90
2022-12-24T07:30:38.504Z,99.90
2022-12-24T07:33:41.622Z,99.90
2022-12-24T07:36:44.742Z,99.90
2022-12-24T07:39:49.263Z,99.90
2022-12-24T07:42:52.375Z,99.90
2022-12-24T07:45:57.838Z,99.90
2022-12-24T07:49:01.490Z,99.90
2022-12-24T07:52:05.012Z,99.90
2022-12-24T07:55:10.279Z,99.90
2022-12-24T07:58:13.467Z,99.90
2022-12-24T08:01:16.688Z,99.90
2022-12-24T08:04:19.866Z,99.90
2022-12-24T08:07:23.001Z,99.90
2022-12-24T08:10:27.527Z,99.90
2022-12-24T08:13:30.862Z,99.90
2022-12-24T08:16:34.057Z,99.90
2022-12-24T08:19:37.462Z,99.90
2022-12-24T08:22:40.617Z,99.90
2022-12-24T08:25:46.699Z,99.90
2022-12-24T08:28:49.848Z,99.90
2022-12-24T08:31:53.104Z,99.90
2022-12-24T08:34:56.287Z,99.90
2022-12-24T08:37:59.649Z,99.90
2022-12-24T08:41:04.215Z,99.90
2022-12-24T08:44:07.380Z,99.90
2022-12-24T08:47:10.527Z,99.90
2022-12-24T08:50:14.150Z,99.90
2022-12-24T08:53:17.325Z,99.90
2022-12-24T08:56:22.727Z,99.90
2022-12-24T08:59:25.965Z,99.90
2022-12-24T09:02:29.303Z,99.90
2022-12-24T09:05:32.739Z,99.90
2022-12-24T09:08:36.720Z,99.90
2022-12-24T09:11:41.296Z,99.90
2022-12-24T09:14:44.478Z,99.90
2022-12-24T09:17:47.676Z,99.90
2022-12-24T09:20:56.882Z,99.90
2022-12-24T09:24:01.389Z,99.90
2022-12-24T09:27:05.985Z,99.90
2022-12-24T09:30:10.529Z,99.90
2022-12-24T09:33:13.755Z,99.90
2022-12-24T09:36:17.651Z,99.90
2022-12-24T09:39:20.863Z,99.90
2022-12-24T09:42:35.931Z,99.90
2022-12-24T09:45:42.862Z,99.90
2022-12-24T09:48:49.943Z,99.90
2022-12-24T09:51:57.738Z,99.90
2022-12-24T09:55:08.066Z,99.90
2022-12-24T09:58:21.716Z,99.90
2022-12-24T10:01:25.009Z,99.90
2022-12-24T10:04:33.820Z,99.90
2022-12-24T10:07:50.157Z,99.90
2022-12-24T10:10:55.462Z,99.90
2022-12-24T10:14:11.393Z,99.90
2022-12-24T10:17:31.787Z,99.90
2022-12-24T10:20:43.554Z,99.90
2022-12-24T10:23:52.543Z,99.90
2022-12-24T10:27:00.850Z,99.90
2022-12-24T10:30:17.174Z,99.90
2022-12-24T10:33:24.289Z,99.90
2022-12-24T10:36:30.087Z,99.90
2022-12-24T10:39:33.397Z,99.90
2022-12-24T10:42:50.115Z,99.90
2022-12-24T10:46:00.572Z,99.90
2022-12-24T10:49:06.281Z,99.90
2022-12-24T10:52:13.823Z,99.90
2022-12-24T10:55:25.245Z,99.90
2022-12-24T10:58:28.475Z,99.90
2022-12-24T11:01:47.830Z,99.90
2022-12-24T11:04:51.742Z,99.90
2022-12-24T11:08:01.456Z,99.90
2022-12-24T11:11:07.124Z,99.90
2022-12-24T11:14:17.467Z,99.90
2022-12-24T11:17:24.417Z,99.90
2022-12-24T11:20:30.484Z,99.90
2022-12-24T11:23:33.736Z,99.90
2022-12-24T11:26:37.213Z,98.10
2022-12-24T11:29:40.381Z,97.20
2022-12-24T11:32:46.553Z,96.90
2022-12-24T11:36:05.607Z,97.20
2022-12-24T11:39:20.269Z,95.40
2022-12-24T11:42:34.739Z,93.40
2022-12-24T11:45:37.895Z,93.50
2022-12-24T11:48:42.437Z,94.80
2022-12-24T11:52:12.546Z,94.50
2022-12-24T11:55:20.246Z,94.80
2022-12-24T11:58:29.903Z,95.00
2022-12-24T12:01:37.397Z,95.10
2022-12-24T12:04:45.136Z,95.50
2022-12-24T12:07:51.307Z,96.40
2022-12-24T12:10:56.017Z,97.10
2022-12-24T12:14:02.618Z,97.60
2022-12-24T12:17:18.117Z,97.90
2022-12-24T12:20:26.332Z,99.10
2022-12-24T12:23:32.394Z,94.80
2022-12-24T12:26:35.694Z,94.10
2022-12-24T12:29:46.918Z,94.70
2022-12-24T12:32:54.926Z,90.10
2022-12-24T12:36:02.822Z,73.10
2022-12-24T12:39:05.991Z,50.10
2022-12-24T12:42:17.538Z,42.00
2022-12-24T12:45:41.034Z,34.30
2022-12-24T12:49:02.229Z,30.00
2022-12-24T12:52:17.925Z,28.70
2022-12-24T12:55:33.584Z,27.60
2022-12-24T12:58:42.839Z,26.70
2022-12-24T13:01:54.886Z,25.80
2022-12-24T13:05:37.416Z,24.40
2022-12-24T13:09:05.898Z,25.40
2022-12-24T13:12:28.118Z,27.80
2022-12-24T13:15:48.254Z,31.10
2022-12-24T13:19:10.760Z,30.90
2022-12-24T13:22:18.483Z,31.30
2022-12-24T13:25:27.512Z,30.10
2022-12-24T13:28:37.104Z,29.10
2022-12-24T13:31:40.319Z,30.60
2022-12-24T13:34:49.817Z,33.70
2022-12-24T13:37:53.587Z,36.10
2022-12-24T13:41:18.229Z,35.70
2022-12-24T13:44:33.888Z,34.40
2022-12-24T13:47:41.511Z,31.70
2022-12-24T13:50:47.009Z,32.10
2022-12-24T13:53:50.860Z,32.30
2022-12-24T13:56:54.152Z,31.40
2022-12-24T14:00:02.316Z,33.00
2022-12-24T14:03:18.051Z,35.70
2022-12-24T14:06:25.237Z,38.90
2022-12-24T14:09:30.510Z,39.60
2022-12-24T14:12:47.878Z,41.10
2022-12-24T14:16:05.411Z,40.70
2022-12-24T14:19:15.639Z,39.80
2022-12-24T14:22:29.936Z,39.70
2022-12-24T14:25:33.215Z,39.90
2022-12-24T14:28:41.422Z,41.50
2022-12-24T14:31:53.922Z,43.80
2022-12-24T14:35:15.453Z,46.10
2022-12-24T14:38:21.341Z,48.20
2022-12-24T14:41:34.302Z,50.20
2022-12-24T14:44:47.394Z,52.30
2022-12-24T14:48:00.842Z,54.00
2022-12-24T14:51:13.147Z,55.70
2022-12-24T14:54:32.485Z,57.80
2022-12-24T14:57:35.756Z,60.50
2022-12-24T15:00:39.680Z,64.10
2022-12-24T15:03:44.630Z,66.50
2022-12-24T15:06:50.701Z,69.70
2022-12-24T15:09:54.224Z,73.60
2022-12-24T15:12:59.019Z,76.70
2022-12-24T15:16:04.258Z,79.90
2022-12-24T15:19:16.796Z,83.70
2022-12-24T15:22:25.737Z,87.00
2022-12-24T15:25:30.763Z,89.70
2022-12-24T15:28:39.320Z,91.20
2022-12-24T15:31:42.514Z,92.30
2022-12-24T15:34:48.404Z,93.10
2022-12-24T15:37:51.708Z,94.10
2022-12-24T15:40:55.896Z,95.00
2022-12-24T15:44:02.755Z,95.70
2022-12-24T15:47:08.861Z,96.40
2022-12-24T15:50:23.849Z,97.10
2022-12-24T15:53:32.181Z,97.80
2022-12-24T15:56:43.941Z,98.20
2022-12-24T15:59:53.473Z,99.20
2022-12-24T16:02:58.132Z,99.70
2022-12-24T16:06:03.894Z,99.90
2022-12-24T16:09:41.838Z,99.90
2022-12-24T16:12:45.047Z,99.90
2022-12-24T16:15:52.250Z,99.90
2022-12-24T16:18:58.004Z,99.90
2022-12-24T16:22:24.120Z,99.90
2022-12-24T16:25:29.904Z,99.90
2022-12-24T16:28:33.259Z,99.90
2022-12-24T16:31:40.223Z,99.90
2022-12-24T16:34:43.497Z,99.90
2022-12-24T16:37:46.650Z,99.90
2022-12-24T16:40:51.202Z,99.90
2022-12-24T16:43:53.359Z,99.90
2022-12-24T16:46:59.729Z,99.90
2022-12-24T16:50:03.702Z,99.90
2022-12-24T16:53:08.448Z,99.90
2022-12-24T16:56:14.641Z,99.90
2022-12-24T16:59:19.381Z,99.90
2022-12-24T17:02:24.663Z,99.90
2022-12-24T17:05:28.499Z,99.90
2022-12-24T17:08:31.644Z,99.90
2022-12-24T17:11:36.226Z,99.90
2022-12-24T17:14:40.482Z,99.90
2022-12-24T17:17:43.659Z,99.90
2022-12-24T17:20:46.879Z,99.90
2022-12-24T17:23:50.071Z,99.90
2022-12-24T17:26:54.652Z,99.90
2022-12-24T17:29:57.844Z,99.90
2022-12-24T17:33:01.015Z,99.90
2022-12-24T17:36:04.603Z,99.90
2022-12-24T17:39:07.849Z,99.90
2022-12-24T17:42:12.640Z,99.90
2022-12-24T17:45:15.980Z,99.90
2022-12-24T17:48:19.172Z,99.90
2022-12-24T17:51:24.441Z,99.90
2022-12-24T17:54:27.659Z,99.90
2022-12-24T17:57:32.266Z,99.90
2022-12-24T18:00:35.455Z,99.90
2022-12-24T18:03:38.740Z,99.90
2022-12-24T18:06:48.826Z,99.90
2022-12-24T18:09:52.471Z,99.90
2022-12-24T18:12:57.393Z,99.90
2022-12-24T18:16:00.629Z,99.90
2022-12-24T18:19:05.977Z,99.90
2022-12-24T18:22:09.129Z,99.90
2022-12-24T18:25:12.411Z,99.90
2022-12-24T18:28:16.984Z,99.90
2022-12-24T18:31:21.477Z,99.90
2022-12-24T18:34:24.715Z,99.90
2022-12-24T18:37:27.954Z,99.90
2022-12-24T18:40:31.175Z,99.90
2022-12-24T18:43:36.264Z,99.90
2022-12-24T18:46:39.529Z,99.90
2022-12-24T18:49:42.860Z,99.90
2022-12-24T18:52:46.063Z,99.90
2022-12-24T18:55:49.270Z,99.90
2022-12-24T18:58:56.276Z,99.90
2022-12-24T19:01:59.566Z,99.90
2022-12-24T19:05:02.882Z,99.90
2022-12-24T19:08:22.235Z,99.90
2022-12-24T19:11:32.200Z,99.90
2022-12-24T19:14:36.892Z,99.90
2022-12-24T19:17:40.233Z,99.90
2022-12-24T19:20:43.433Z,99.90
2022-12-24T19:23:47.477Z,99.90
2022-12-24T19:26:50.707Z,99.90
2022-12-24T19:29:55.264Z,99.90
2022-12-24T19:32:58.406Z,99.90
2022-12-24T19:36:07.088Z,99.90
2022-12-24T19:39:10.255Z,99.90
2022-12-24T19:42:13.403Z,99.90
2022-12-24T19:45:18.101Z,99.90
2022-12-24T19:48:21.261Z,99.90
2022-12-24T19:51:25.683Z,99.90
2022-12-24T19:54:28.800Z,99.90
2022-12-24T19:57:32.006Z,99.90
2022-12-24T20:00:36.565Z,99.90
2022-12-24T20:03:39.797Z,99.90
2022-12-24T20:06:42.967Z,99.90
2022-12-24T20:09:46.379Z,99.90
2022-12-24T20:12:49.570Z,99.90
2022-12-24T20:15:54.266Z,99.90
2022-12-24T20:18:59.089Z,99.90
2022-12-24T20:22:02.307Z,99.90
2022-12-24T20:25:05.879Z,99.90
2022-12-24T20:28:09.076Z,99.90
2022-12-24T20:31:16.594Z,99.90
2022-12-24T20:34:19.784Z,99.90
2022-12-24T20:37:23.003Z,99.90
2022-12-24T20:40:26.484Z,99.90
2022-12-24T20:43:35.310Z,99.90
2022-12-24T20:46:41.987Z,99.90
2022-12-24T20:49:45.155Z,99.90
2022-12-24T20:52:48.358Z,99.90
2022-12-24T20:55:51.796Z,99.90
2022-12-24T20:58:54.970Z,99.90
2022-12-24T21:01:59.734Z,99.90
2022-12-24T21:05:03.101Z,99.90
2022-12-24T21:08:06.427Z,99.90
2022-12-24T21:11:26.889Z,99.90
2022-12-24T21:14:30.120Z,99.90
2022-12-24T21:17:34.663Z,99.90
2022-12-24T21:20:38.337Z,99.90
2022-12-24T21:23:41.546Z,99.90
2022-12-24T21:26:45.228Z,99.90
2022-12-24T21:29:48.466Z,99.90
2022-12-24T21:32:53.353Z,99.90
2022-12-24T21:35:59.882Z,99.90
2022-12-24T21:39:03.080Z,99.90
2022-12-24T21:42:06.344Z,99.90
2022-12-24T21:45:10.916Z,99.90
2022-12-24T21:48:29.367Z,99.90
2022-12-24T21:51:33.686Z,99.90
2022-12-24T21:54:36.884Z,99.90
2022-12-24T21:57:55.134Z,99.90
2022-12-24T22:00:58.360Z,99.90
2022-12-24T22:04:02.959Z,99.90
2022-12-24T22:07:24.004Z,99.90
2022-12-24T22:10:44.728Z,99.90
2022-12-24T22:13:47.875Z,99.90
2022-12-24T22:16:51.086Z,99.90
2022-12-24T22:19:55.917Z,99.90
2022-12-24T22:22:59.104Z,99.90
2022-12-24T22:26:02.310Z,99.90
2022-12-24T22:29:06.136Z,99.90
2022-12-24T22:32:09.276Z,99.90
2022-12-24T22:35:13.847Z,99.90
2022-12-24T22:38:16.947Z,99.90
2022-12-24T22:41:20.360Z,99.90
2022-12-24T22:44:23.528Z,99.90
2022-12-24T22:47:26.918Z,99.90
2022-12-24T22:50:31.498Z,99.90
2022-12-24T22:53:35.095Z,99.90
2022-12-24T22:56:41.329Z,99.90
2022-12-24T22:59:45.071Z,99.90
2022-12-24T23:02:48.317Z,99.90
2022-12-24T23:05:58.648Z,99.90
2022-12-24T23:09:02.132Z,99.90
2022-12-24T23:12:05.835Z,99.90
2022-12-24T23:15:09.148Z,99.90
2022-12-24T23:18:12.639Z,99.90
2022-12-24T23:21:17.143Z,99.90
2022-12-24T23:24:20.318Z,99.90
2022-12-24T23:27:23.467Z,99.90
2022-12-24T23:30:26.685Z,99.90
2022-12-24T23:33:30.263Z,99.90
2022-12-24T23:36:35.022Z,99.90
2022-12-24T23:39:38.185Z,99.90
2022-12-24T23:42:41.377Z,99.90
2022-12-24T23:45:48.379Z,99.90
2022-12-24T23:48:55.068Z,99.90
2022-12-24T23:51:59.595Z,99.90
2022-12-24T23:55:03.511Z,99.90
2022-12-24T23:58:07.366Z,99.90
